sensor_id;sensor_type;location;lat;lon;timestamp;P1;durP1;ratioP1;P2;durP2;ratioP2
28481;SDS011;15703;49.588;6.260;2023-04-28T00:00:50;4.17;;;3.77;;
28481;SDS011;15703;49.588;6.260;2023-04-28T00:03:12;5.37;;;4.23;;
28481;SDS011;15703;49.588;6.260;2023-04-28T00:05:35;5.60;;;4.17;;
28481;SDS011;15703;49.588;6.260;2023-04-28T00:07:58;4.40;;;4.00;;
28481;SDS011;15703;49.588;6.260;2023-04-28T00:10:23;5.70;;;4.63;;
28481;SDS011;15703;49.588;6.260;2023-04-28T00:12:45;4.67;;;4.23;;
28481;SDS011;15703;49.588;6.260;2023-04-28T00:15:13;4.97;;;4.30;;
28481;SDS011;15703;49.588;6.260;2023-04-28T00:17:36;4.97;;;4.50;;
28481;SDS011;15703;49.588;6.260;2023-04-28T00:20:05;10.67;;;6.17;;
28481;SDS011;15703;49.588;6.260;2023-04-28T00:22:28;4.80;;;4.07;;
28481;SDS011;15703;49.588;6.260;2023-04-28T00:24:51;6.03;;;5.00;;
28481;SDS011;15703;49.588;6.260;2023-04-28T00:27:13;8.00;;;4.83;;
28481;SDS011;15703;49.588;6.260;2023-04-28T00:29:36;5.20;;;4.70;;
28481;SDS011;15703;49.588;6.260;2023-04-28T00:31:58;4.87;;;4.47;;
28481;SDS011;15703;49.588;6.260;2023-04-28T00:34:21;5.37;;;4.87;;
28481;SDS011;15703;49.588;6.260;2023-04-28T00:36:43;7.13;;;4.60;;
28481;SDS011;15703;49.588;6.260;2023-04-28T00:39:08;4.47;;;3.83;;
28481;SDS011;15703;49.588;6.260;2023-04-28T00:41:33;5.27;;;4.20;;
28481;SDS011;15703;49.588;6.260;2023-04-28T00:43:55;5.60;;;4.80;;
28481;SDS011;15703;49.588;6.260;2023-04-28T00:46:19;6.40;;;4.83;;
28481;SDS011;15703;49.588;6.260;2023-04-28T00:48:43;5.07;;;4.57;;
28481;SDS011;15703;49.588;6.260;2023-04-28T00:51:05;5.00;;;4.30;;
28481;SDS011;15703;49.588;6.260;2023-04-28T00:53:32;5.10;;;4.60;;
28481;SDS011;15703;49.588;6.260;2023-04-28T00:55:56;7.53;;;4.87;;
28481;SDS011;15703;49.588;6.260;2023-04-28T00:58:19;5.40;;;4.63;;
28481;SDS011;15703;49.588;6.260;2023-04-28T01:00:41;6.43;;;4.80;;
28481;SDS011;15703;49.588;6.260;2023-04-28T01:03:07;5.40;;;4.87;;
28481;SDS011;15703;49.588;6.260;2023-04-28T01:05:32;7.03;;;5.60;;
28481;SDS011;15703;49.588;6.260;2023-04-28T01:08:16;5.83;;;5.23;;
28481;SDS011;15703;49.588;6.260;2023-04-28T01:10:44;6.20;;;5.57;;
28481;SDS011;15703;49.588;6.260;2023-04-28T01:13:27;6.23;;;5.43;;
28481;SDS011;15703;49.588;6.260;2023-04-28T01:15:50;5.43;;;4.93;;
28481;SDS011;15703;49.588;6.260;2023-04-28T01:18:13;6.27;;;4.87;;
28481;SDS011;15703;49.588;6.260;2023-04-28T01:20:35;5.70;;;5.17;;
28481;SDS011;15703;49.588;6.260;2023-04-28T01:22:58;4.73;;;4.23;;
28481;SDS011;15703;49.588;6.260;2023-04-28T01:25:21;5.70;;;5.20;;
28481;SDS011;15703;49.588;6.260;2023-04-28T01:27:52;6.20;;;4.87;;
28481;SDS011;15703;49.588;6.260;2023-04-28T01:30:14;5.57;;;5.00;;
28481;SDS011;15703;49.588;6.260;2023-04-28T01:32:37;8.63;;;5.63;;
28481;SDS011;15703;49.588;6.260;2023-04-28T01:34:59;5.50;;;4.60;;
28481;SDS011;15703;49.588;6.260;2023-04-28T01:37:48;5.83;;;4.80;;
28481;SDS011;15703;49.588;6.260;2023-04-28T01:40:10;5.87;;;4.60;;
28481;SDS011;15703;49.588;6.260;2023-04-28T01:42:33;6.33;;;4.70;;
28481;SDS011;15703;49.588;6.260;2023-04-28T01:45:04;5.03;;;4.63;;
28481;SDS011;15703;49.588;6.260;2023-04-28T01:47:26;6.13;;;5.53;;
28481;SDS011;15703;49.588;6.260;2023-04-28T01:49:49;5.53;;;5.00;;
28481;SDS011;15703;49.588;6.260;2023-04-28T01:52:12;5.80;;;5.07;;
28481;SDS011;15703;49.588;6.260;2023-04-28T01:54:35;6.23;;;5.73;;
28481;SDS011;15703;49.588;6.260;2023-04-28T01:56:58;5.90;;;5.40;;
28481;SDS011;15703;49.588;6.260;2023-04-28T01:59:31;6.43;;;5.73;;
28481;SDS011;15703;49.588;6.260;2023-04-28T02:01:53;7.33;;;6.13;;
28481;SDS011;15703;49.588;6.260;2023-04-28T02:04:16;6.40;;;5.50;;
28481;SDS011;15703;49.588;6.260;2023-04-28T02:06:39;7.23;;;4.90;;
28481;SDS011;15703;49.588;6.260;2023-04-28T02:09:02;6.87;;;5.73;;
28481;SDS011;15703;49.588;6.260;2023-04-28T02:11:27;8.83;;;5.77;;
28481;SDS011;15703;49.588;6.260;2023-04-28T02:13:50;9.03;;;6.33;;
28481;SDS011;15703;49.588;6.260;2023-04-28T02:16:13;6.77;;;6.07;;
28481;SDS011;15703;49.588;6.260;2023-04-28T02:18:36;5.87;;;5.37;;
28481;SDS011;15703;49.588;6.260;2023-04-28T02:21:06;6.93;;;5.70;;
28481;SDS011;15703;49.588;6.260;2023-04-28T02:23:29;6.77;;;6.17;;
28481;SDS011;15703;49.588;6.260;2023-04-28T02:25:59;6.33;;;5.73;;
28481;SDS011;15703;49.588;6.260;2023-04-28T02:28:21;7.00;;;6.30;;
28481;SDS011;15703;49.588;6.260;2023-04-28T02:30:44;6.67;;;6.07;;
28481;SDS011;15703;49.588;6.260;2023-04-28T02:33:06;6.70;;;6.10;;
28481;SDS011;15703;49.588;6.260;2023-04-28T02:35:29;6.83;;;5.80;;
28481;SDS011;15703;49.588;6.260;2023-04-28T02:37:51;7.67;;;6.47;;
28481;SDS011;15703;49.588;6.260;2023-04-28T02:40:14;6.83;;;6.17;;
28481;SDS011;15703;49.588;6.260;2023-04-28T02:42:36;7.13;;;5.87;;
28481;SDS011;15703;49.588;6.260;2023-04-28T02:44:59;8.47;;;6.73;;
28481;SDS011;15703;49.588;6.260;2023-04-28T02:47:21;7.70;;;6.90;;
28481;SDS011;15703;49.588;6.260;2023-04-28T02:49:43;8.97;;;7.37;;
28481;SDS011;15703;49.588;6.260;2023-04-28T02:52:06;7.03;;;6.23;;
28481;SDS011;15703;49.588;6.260;2023-04-28T02:54:29;8.43;;;6.23;;
28481;SDS011;15703;49.588;6.260;2023-04-28T02:56:53;7.80;;;6.43;;
28481;SDS011;15703;49.588;6.260;2023-04-28T02:59:16;8.50;;;7.70;;
28481;SDS011;15703;49.588;6.260;2023-04-28T03:01:40;7.83;;;7.03;;
28481;SDS011;15703;49.588;6.260;2023-04-28T03:04:03;10.93;;;8.00;;
28481;SDS011;15703;49.588;6.260;2023-04-28T03:06:26;8.37;;;7.53;;
28481;SDS011;15703;49.588;6.260;2023-04-28T03:08:48;10.90;;;8.37;;
28481;SDS011;15703;49.588;6.260;2023-04-28T03:11:11;8.10;;;7.30;;
28481;SDS011;15703;49.588;6.260;2023-04-28T03:13:34;8.50;;;7.03;;
28481;SDS011;15703;49.588;6.260;2023-04-28T03:15:56;8.73;;;7.93;;
28481;SDS011;15703;49.588;6.260;2023-04-28T03:18:19;9.10;;;7.03;;
28481;SDS011;15703;49.588;6.260;2023-04-28T03:20:43;12.37;;;6.90;;
28481;SDS011;15703;49.588;6.260;2023-04-28T03:23:05;9.70;;;6.63;;
28481;SDS011;15703;49.588;6.260;2023-04-28T03:25:28;9.97;;;7.03;;
28481;SDS011;15703;49.588;6.260;2023-04-28T03:27:50;8.07;;;6.63;;
28481;SDS011;15703;49.588;6.260;2023-04-28T03:30:12;9.27;;;7.00;;
28481;SDS011;15703;49.588;6.260;2023-04-28T03:32:35;8.80;;;6.43;;
28481;SDS011;15703;49.588;6.260;2023-04-28T03:34:57;7.50;;;6.70;;
28481;SDS011;15703;49.588;6.260;2023-04-28T03:37:20;7.77;;;6.97;;
28481;SDS011;15703;49.588;6.260;2023-04-28T03:39:42;8.00;;;7.13;;
28481;SDS011;15703;49.588;6.260;2023-04-28T03:42:05;12.73;;;7.97;;
28481;SDS011;15703;49.588;6.260;2023-04-28T03:44:56;8.90;;;7.90;;
28481;SDS011;15703;49.588;6.260;2023-04-28T03:47:18;8.90;;;7.80;;
28481;SDS011;15703;49.588;6.260;2023-04-28T03:49:41;11.63;;;8.07;;
28481;SDS011;15703;49.588;6.260;2023-04-28T03:52:04;11.10;;;8.10;;
28481;SDS011;15703;49.588;6.260;2023-04-28T03:54:29;11.83;;;8.97;;
28481;SDS011;15703;49.588;6.260;2023-04-28T03:56:53;11.37;;;8.43;;
28481;SDS011;15703;49.588;6.260;2023-04-28T03:59:16;11.90;;;8.70;;
28481;SDS011;15703;49.588;6.260;2023-04-28T04:01:38;8.67;;;7.87;;
28481;SDS011;15703;49.588;6.260;2023-04-28T04:04:00;10.20;;;8.63;;
28481;SDS011;15703;49.588;6.260;2023-04-28T04:06:23;8.70;;;7.63;;
28481;SDS011;15703;49.588;6.260;2023-04-28T04:08:46;12.77;;;9.00;;
28481;SDS011;15703;49.588;6.260;2023-04-28T04:11:09;9.40;;;8.30;;
28481;SDS011;15703;49.588;6.260;2023-04-28T04:13:32;10.00;;;8.53;;
28481;SDS011;15703;49.588;6.260;2023-04-28T04:15:56;8.90;;;8.00;;
28481;SDS011;15703;49.588;6.260;2023-04-28T04:18:20;9.37;;;7.77;;
28481;SDS011;15703;49.588;6.260;2023-04-28T04:21:10;6.90;;;6.00;;
28481;SDS011;15703;49.588;6.260;2023-04-28T04:23:36;6.30;;;5.70;;
28481;SDS011;15703;49.588;6.260;2023-04-28T04:25:58;7.83;;;6.50;;
28481;SDS011;15703;49.588;6.260;2023-04-28T04:28:21;6.23;;;5.67;;
28481;SDS011;15703;49.588;6.260;2023-04-28T04:30:44;7.27;;;6.33;;
28481;SDS011;15703;49.588;6.260;2023-04-28T04:33:08;6.23;;;5.63;;
28481;SDS011;15703;49.588;6.260;2023-04-28T04:35:36;6.00;;;5.50;;
28481;SDS011;15703;49.588;6.260;2023-04-28T04:37:59;5.90;;;5.13;;
28481;SDS011;15703;49.588;6.260;2023-04-28T04:40:22;5.63;;;5.10;;
28481;SDS011;15703;49.588;6.260;2023-04-28T04:42:44;5.40;;;4.90;;
28481;SDS011;15703;49.588;6.260;2023-04-28T04:45:11;5.47;;;4.97;;
28481;SDS011;15703;49.588;6.260;2023-04-28T04:47:35;4.90;;;4.23;;
28481;SDS011;15703;49.588;6.260;2023-04-28T04:49:58;4.97;;;4.50;;
28481;SDS011;15703;49.588;6.260;2023-04-28T04:52:23;7.43;;;4.43;;
28481;SDS011;15703;49.588;6.260;2023-04-28T04:54:45;4.60;;;4.17;;
28481;SDS011;15703;49.588;6.260;2023-04-28T04:57:08;3.87;;;3.40;;
28481;SDS011;15703;49.588;6.260;2023-04-28T04:59:52;4.07;;;3.67;;
28481;SDS011;15703;49.588;6.260;2023-04-28T05:02:17;3.50;;;3.20;;
28481;SDS011;15703;49.588;6.260;2023-04-28T05:04:51;4.07;;;3.77;;
28481;SDS011;15703;49.588;6.260;2023-04-28T05:07:25;3.73;;;3.43;;
28481;SDS011;15703;49.588;6.260;2023-04-28T05:09:48;4.30;;;3.90;;
28481;SDS011;15703;49.588;6.260;2023-04-28T05:12:10;4.80;;;4.13;;
28481;SDS011;15703;49.588;6.260;2023-04-28T05:14:33;4.03;;;3.70;;
28481;SDS011;15703;49.588;6.260;2023-04-28T05:16:55;3.73;;;3.40;;
28481;SDS011;15703;49.588;6.260;2023-04-28T05:19:23;4.67;;;4.03;;
28481;SDS011;15703;49.588;6.260;2023-04-28T05:21:46;4.30;;;3.90;;
28481;SDS011;15703;49.588;6.260;2023-04-28T05:24:08;6.13;;;4.60;;
28481;SDS011;15703;49.588;6.260;2023-04-28T05:26:31;4.80;;;4.40;;
28481;SDS011;15703;49.588;6.260;2023-04-28T05:29:02;5.13;;;4.13;;
28481;SDS011;15703;49.588;6.260;2023-04-28T05:32:04;4.40;;;4.10;;
28481;SDS011;15703;49.588;6.260;2023-04-28T05:35:35;4.90;;;4.50;;
28481;SDS011;15703;49.588;6.260;2023-04-28T05:38:58;5.00;;;4.33;;
28481;SDS011;15703;49.588;6.260;2023-04-28T05:42:06;4.80;;;4.40;;
28481;SDS011;15703;49.588;6.260;2023-04-28T05:45:24;5.73;;;4.27;;
28481;SDS011;15703;49.588;6.260;2023-04-28T05:48:32;5.40;;;4.90;;
28481;SDS011;15703;49.588;6.260;2023-04-28T05:51:06;4.97;;;4.47;;
28481;SDS011;15703;49.588;6.260;2023-04-28T05:53:45;6.67;;;4.70;;
28481;SDS011;15703;49.588;6.260;2023-04-28T05:56:10;5.23;;;4.73;;
28481;SDS011;15703;49.588;6.260;2023-04-28T05:58:33;4.53;;;4.13;;
28481;SDS011;15703;49.588;6.260;2023-04-28T06:04:30;5.87;;;5.17;;
28481;SDS011;15703;49.588;6.260;2023-04-28T06:06:54;5.40;;;4.40;;
28481;SDS011;15703;49.588;6.260;2023-04-28T06:09:20;5.27;;;4.77;;
28481;SDS011;15703;49.588;6.260;2023-04-28T06:11:46;5.50;;;4.40;;
28481;SDS011;15703;49.588;6.260;2023-04-28T06:14:54;5.50;;;5.03;;
28481;SDS011;15703;49.588;6.260;2023-04-28T06:18:26;5.37;;;4.43;;
28481;SDS011;15703;49.588;6.260;2023-04-28T06:22:04;4.73;;;4.27;;
28481;SDS011;15703;49.588;6.260;2023-04-28T06:25:37;5.40;;;4.20;;
28481;SDS011;15703;49.588;6.260;2023-04-28T06:40:41;5.65;;;3.47;;
28481;SDS011;15703;49.588;6.260;2023-04-28T06:43:09;4.57;;;3.33;;
28481;SDS011;15703;49.588;6.260;2023-04-28T06:45:40;2.92;;;2.63;;
28481;SDS011;15703;49.588;6.260;2023-04-28T06:48:07;3.20;;;2.90;;
28481;SDS011;15703;49.588;6.260;2023-04-28T06:54:07;2.28;;;2.10;;
28481;SDS011;15703;49.588;6.260;2023-04-28T06:59:28;1.63;;;1.52;;
28481;SDS011;15703;49.588;6.260;2023-04-28T07:02:12;5.13;;;1.65;;
28481;SDS011;15703;49.588;6.260;2023-04-28T07:08:56;2.20;;;1.60;;
28481;SDS011;15703;49.588;6.260;2023-04-28T07:11:42;1.35;;;1.25;;
28481;SDS011;15703;49.588;6.260;2023-04-28T07:14:09;1.30;;;1.20;;
28481;SDS011;15703;49.588;6.260;2023-04-28T07:23:24;0.98;;;0.98;;
28481;SDS011;15703;49.588;6.260;2023-04-28T07:26:07;2.03;;;0.90;;
28481;SDS011;15703;49.588;6.260;2023-04-28T07:28:32;2.93;;;1.00;;
28481;SDS011;15703;49.588;6.260;2023-04-28T07:30:55;0.80;;;0.80;;
28481;SDS011;15703;49.588;6.260;2023-04-28T07:33:25;2.63;;;1.13;;
28481;SDS011;15703;49.588;6.260;2023-04-28T07:36:15;0.85;;;0.85;;
28481;SDS011;15703;49.588;6.260;2023-04-28T07:46:23;1.10;;;1.00;;
28481;SDS011;15703;49.588;6.260;2023-04-28T07:48:46;1.52;;;0.90;;
28481;SDS011;15703;49.588;6.260;2023-04-28T07:51:47;1.15;;;1.05;;
28481;SDS011;15703;49.588;6.260;2023-04-28T07:54:10;1.67;;;1.15;;
28481;SDS011;15703;49.588;6.260;2023-04-28T07:57:21;0.80;;;0.80;;
28481;SDS011;15703;49.588;6.260;2023-04-28T07:59:44;1.40;;;0.98;;
28481;SDS011;15703;49.588;6.260;2023-04-28T08:05:20;1.33;;;1.23;;
28481;SDS011;15703;49.588;6.260;2023-04-28T08:07:44;0.95;;;0.85;;
28481;SDS011;15703;49.588;6.260;2023-04-28T08:10:12;1.17;;;0.80;;
28481;SDS011;15703;49.588;6.260;2023-04-28T08:12:35;0.93;;;0.82;;
28481;SDS011;15703;49.588;6.260;2023-04-28T08:14:59;3.08;;;0.98;;
28481;SDS011;15703;49.588;6.260;2023-04-28T08:17:22;0.98;;;0.82;;
28481;SDS011;15703;49.588;6.260;2023-04-28T08:19:54;0.57;;;0.57;;
28481;SDS011;15703;49.588;6.260;2023-04-28T08:22:17;0.95;;;0.70;;
28481;SDS011;15703;49.588;6.260;2023-04-28T09:14:58;1.15;;;0.88;;
28481;SDS011;15703;49.588;6.260;2023-04-28T09:37:20;1.17;;;1.08;;
28481;SDS011;15703;49.588;6.260;2023-04-28T10:05:36;0.70;;;0.70;;
28481;SDS011;15703;49.588;6.260;2023-04-28T10:11:16;2.15;;;0.77;;
28481;SDS011;15703;49.588;6.260;2023-04-28T10:14:18;0.40;;;0.40;;
28481;SDS011;15703;49.588;6.260;2023-04-28T10:24:14;2.58;;;1.15;;
28481;SDS011;15703;49.588;6.260;2023-04-28T10:34:42;0.63;;;0.60;;
28481;SDS011;15703;49.588;6.260;2023-04-28T10:38:10;0.50;;;0.50;;
28481;SDS011;15703;49.588;6.260;2023-04-28T10:40:48;0.50;;;0.50;;
28481;SDS011;15703;49.588;6.260;2023-04-28T10:46:58;0.50;;;0.50;;
28481;SDS011;15703;49.588;6.260;2023-04-28T10:53:04;0.60;;;0.60;;
28481;SDS011;15703;49.588;6.260;2023-04-28T10:59:32;0.50;;;0.45;;
28481;SDS011;15703;49.588;6.260;2023-04-28T11:10:00;0.22;;;0.22;;
28481;SDS011;15703;49.588;6.260;2023-04-28T11:14:56;0.52;;;0.40;;
28481;SDS011;15703;49.588;6.260;2023-04-28T11:21:04;0.68;;;0.20;;
28481;SDS011;15703;49.588;6.260;2023-04-28T11:23:27;2.20;;;0.47;;
28481;SDS011;15703;49.588;6.260;2023-04-28T11:25:53;2.10;;;0.40;;
28481;SDS011;15703;49.588;6.260;2023-04-28T11:28:16;1.00;;;0.40;;
28481;SDS011;15703;49.588;6.260;2023-04-28T11:30:45;0.75;;;0.43;;
28481;SDS011;15703;49.588;6.260;2023-04-28T11:33:34;0.50;;;0.35;;
28481;SDS011;15703;49.588;6.260;2023-04-28T11:40:40;0.98;;;0.38;;
28481;SDS011;15703;49.588;6.260;2023-04-28T11:43:27;0.20;;;0.20;;
28481;SDS011;15703;49.588;6.260;2023-04-28T11:46:06;0.55;;;0.45;;
28481;SDS011;15703;49.588;6.260;2023-04-28T12:03:06;0.45;;;0.30;;
28481;SDS011;15703;49.588;6.260;2023-04-28T12:05:53;0.30;;;0.30;;
28481;SDS011;15703;49.588;6.260;2023-04-28T12:08:26;0.52;;;0.52;;
28481;SDS011;15703;49.588;6.260;2023-04-28T12:11:09;0.30;;;0.30;;
28481;SDS011;15703;49.588;6.260;2023-04-28T12:13:35;1.85;;;0.40;;
28481;SDS011;15703;49.588;6.260;2023-04-28T12:16:05;0.30;;;0.30;;
28481;SDS011;15703;49.588;6.260;2023-04-28T12:18:28;0.30;;;0.30;;
28481;SDS011;15703;49.588;6.260;2023-04-28T12:20:51;0.73;;;0.30;;
28481;SDS011;15703;49.588;6.260;2023-04-28T12:23:27;1.85;;;0.30;;
28481;SDS011;15703;49.588;6.260;2023-04-28T12:25:50;1.38;;;0.40;;
28481;SDS011;15703;49.588;6.260;2023-04-28T12:28:13;0.57;;;0.32;;
28481;SDS011;15703;49.588;6.260;2023-04-28T12:34:20;0.40;;;0.40;;
28481;SDS011;15703;49.588;6.260;2023-04-28T12:36:43;2.22;;;0.73;;
28481;SDS011;15703;49.588;6.260;2023-04-28T12:39:11;0.40;;;0.40;;
28481;SDS011;15703;49.588;6.260;2023-04-28T12:45:51;0.60;;;0.45;;
28481;SDS011;15703;49.588;6.260;2023-04-28T12:48:59;1.85;;;0.68;;
28481;SDS011;15703;49.588;6.260;2023-04-28T12:51:24;1.10;;;0.65;;
28481;SDS011;15703;49.588;6.260;2023-04-28T13:02:07;2.55;;;0.60;;
28481;SDS011;15703;49.588;6.260;2023-04-28T13:07:16;0.57;;;0.47;;
28481;SDS011;15703;49.588;6.260;2023-04-28T13:37:25;0.52;;;0.50;;
28481;SDS011;15703;49.588;6.260;2023-04-28T13:39:50;0.30;;;0.30;;
28481;SDS011;15703;49.588;6.260;2023-04-28T13:42:13;0.30;;;0.30;;
28481;SDS011;15703;49.588;6.260;2023-04-28T13:44:41;0.95;;;0.63;;
28481;SDS011;15703;49.588;6.260;2023-04-28T13:47:08;1.38;;;0.30;;
28481;SDS011;15703;49.588;6.260;2023-04-28T14:09:42;1.10;;;0.38;;
28481;SDS011;15703;49.588;6.260;2023-04-28T14:19:00;1.63;;;0.52;;
28481;SDS011;15703;49.588;6.260;2023-04-28T14:22:12;0.77;;;0.40;;
28481;SDS011;15703;49.588;6.260;2023-04-28T14:24:36;2.20;;;0.50;;
28481;SDS011;15703;49.588;6.260;2023-04-28T14:26:59;2.35;;;0.50;;
28481;SDS011;15703;49.588;6.260;2023-04-28T14:29:22;0.50;;;0.50;;
28481;SDS011;15703;49.588;6.260;2023-04-28T14:31:46;0.73;;;0.50;;
28481;SDS011;15703;49.588;6.260;2023-04-28T14:34:11;0.50;;;0.40;;
28481;SDS011;15703;49.588;6.260;2023-04-28T14:36:34;2.10;;;0.55;;
28481;SDS011;15703;49.588;6.260;2023-04-28T14:39:11;0.70;;;0.57;;
28481;SDS011;15703;49.588;6.260;2023-04-28T14:44:59;0.75;;;0.55;;
28481;SDS011;15703;49.588;6.260;2023-04-28T14:47:21;1.98;;;0.30;;
28481;SDS011;15703;49.588;6.260;2023-04-28T14:49:46;1.00;;;0.63;;
28481;SDS011;15703;49.588;6.260;2023-04-28T14:52:09;3.03;;;0.32;;
28481;SDS011;15703;49.588;6.260;2023-04-28T14:54:31;3.05;;;0.40;;
28481;SDS011;15703;49.588;6.260;2023-04-28T14:56:55;1.67;;;0.68;;
28481;SDS011;15703;49.588;6.260;2023-04-28T14:59:19;0.52;;;0.50;;
28481;SDS011;15703;49.588;6.260;2023-04-28T15:02:39;0.95;;;0.60;;
28481;SDS011;15703;49.588;6.260;2023-04-28T15:05:02;1.00;;;0.50;;
28481;SDS011;15703;49.588;6.260;2023-04-28T15:07:50;1.30;;;0.60;;
28481;SDS011;15703;49.588;6.260;2023-04-28T15:14:28;1.05;;;0.50;;
28481;SDS011;15703;49.588;6.260;2023-04-28T15:17:31;0.32;;;0.32;;
28481;SDS011;15703;49.588;6.260;2023-04-28T15:38:32;0.90;;;0.50;;
28481;SDS011;15703;49.588;6.260;2023-04-28T15:40:58;1.50;;;0.68;;
28481;SDS011;15703;49.588;6.260;2023-04-28T15:51:49;1.10;;;0.50;;
28481;SDS011;15703;49.588;6.260;2023-04-28T15:54:12;0.90;;;0.50;;
28481;SDS011;15703;49.588;6.260;2023-04-28T15:56:35;1.33;;;0.60;;
28481;SDS011;15703;49.588;6.260;2023-04-28T15:59:00;1.98;;;0.60;;
28481;SDS011;15703;49.588;6.260;2023-04-28T16:20:29;1.10;;;0.57;;
28481;SDS011;15703;49.588;6.260;2023-04-28T16:22:56;1.55;;;0.55;;
28481;SDS011;15703;49.588;6.260;2023-04-28T16:26:24;2.63;;;0.52;;
28481;SDS011;15703;49.588;6.260;2023-04-28T16:29:06;1.73;;;0.60;;
28481;SDS011;15703;49.588;6.260;2023-04-28T16:32:14;1.08;;;0.75;;
28481;SDS011;15703;49.588;6.260;2023-04-28T16:35:01;0.45;;;0.45;;
28481;SDS011;15703;49.588;6.260;2023-04-28T16:37:27;1.50;;;0.60;;
28481;SDS011;15703;49.588;6.260;2023-04-28T16:43:57;1.05;;;0.70;;
28481;SDS011;15703;49.588;6.260;2023-04-28T17:10:28;2.50;;;0.80;;
28481;SDS011;15703;49.588;6.260;2023-04-28T17:13:24;0.80;;;0.80;;
28481;SDS011;15703;49.588;6.260;2023-04-28T17:23:46;3.13;;;0.95;;
28481;SDS011;15703;49.588;6.260;2023-04-28T17:27:17;2.47;;;0.82;;
28481;SDS011;15703;49.588;6.260;2023-04-28T17:30:09;2.22;;;0.90;;
28481;SDS011;15703;49.588;6.260;2023-04-28T17:32:32;2.05;;;1.20;;
28481;SDS011;15703;49.588;6.260;2023-04-28T17:34:57;1.88;;;1.10;;
28481;SDS011;15703;49.588;6.260;2023-04-28T17:38:22;4.10;;;3.13;;
28481;SDS011;15703;49.588;6.260;2023-04-28T17:40:45;1.60;;;1.27;;
28481;SDS011;15703;49.588;6.260;2023-04-28T17:43:13;2.33;;;1.55;;
28481;SDS011;15703;49.588;6.260;2023-04-28T17:48:49;1.58;;;1.40;;
28481;SDS011;15703;49.588;6.260;2023-04-28T18:15:16;1.73;;;1.50;;
28481;SDS011;15703;49.588;6.260;2023-04-28T18:29:28;3.17;;;1.58;;
28481;SDS011;15703;49.588;6.260;2023-04-28T18:32:02;2.88;;;1.58;;
28481;SDS011;15703;49.588;6.260;2023-04-28T18:48:15;2.30;;;2.10;;
28481;SDS011;15703;49.588;6.260;2023-04-28T18:54:00;2.10;;;1.60;;
28481;SDS011;15703;49.588;6.260;2023-04-28T19:03:13;1.52;;;1.42;;
28481;SDS011;15703;49.588;6.260;2023-04-28T19:06:43;1.88;;;1.50;;
28481;SDS011;15703;49.588;6.260;2023-04-28T19:09:33;1.88;;;1.42;;
28481;SDS011;15703;49.588;6.260;2023-04-28T19:11:59;1.40;;;1.30;;
28481;SDS011;15703;49.588;6.260;2023-04-28T19:17:59;1.50;;;1.40;;
28481;SDS011;15703;49.588;6.260;2023-04-28T19:20:41;1.55;;;1.40;;
28481;SDS011;15703;49.588;6.260;2023-04-28T19:23:05;1.65;;;1.30;;
28481;SDS011;15703;49.588;6.260;2023-04-28T19:25:47;2.15;;;1.30;;
28481;SDS011;15703;49.588;6.260;2023-04-28T19:28:10;1.92;;;1.65;;
28481;SDS011;15703;49.588;6.260;2023-04-28T19:30:34;2.45;;;1.55;;
28481;SDS011;15703;49.588;6.260;2023-04-28T19:32:57;2.15;;;1.50;;
28481;SDS011;15703;49.588;6.260;2023-04-28T19:35:26;2.30;;;1.52;;
28481;SDS011;15703;49.588;6.260;2023-04-28T19:37:51;2.97;;;1.63;;
28481;SDS011;15703;49.588;6.260;2023-04-28T19:40:17;2.05;;;1.60;;
28481;SDS011;15703;49.588;6.260;2023-04-28T19:43:18;2.03;;;1.70;;
28481;SDS011;15703;49.588;6.260;2023-04-28T19:45:43;2.85;;;1.60;;
28481;SDS011;15703;49.588;6.260;2023-04-28T19:48:18;2.95;;;2.75;;
28481;SDS011;15703;49.588;6.260;2023-04-28T19:50:42;5.55;;;2.95;;
28481;SDS011;15703;49.588;6.260;2023-04-28T19:56:46;4.45;;;2.30;;
28481;SDS011;15703;49.588;6.260;2023-04-28T19:59:14;2.20;;;2.00;;
28481;SDS011;15703;49.588;6.260;2023-04-28T20:01:41;5.38;;;4.57;;
28481;SDS011;15703;49.588;6.260;2023-04-28T20:04:04;3.30;;;2.15;;
28481;SDS011;15703;49.588;6.260;2023-04-28T20:06:27;4.45;;;3.58;;
28481;SDS011;15703;49.588;6.260;2023-04-28T20:20:34;2.85;;;2.45;;
28481;SDS011;15703;49.588;6.260;2023-04-28T20:23:47;2.92;;;1.65;;
28481;SDS011;15703;49.588;6.260;2023-04-28T20:26:42;1.50;;;1.40;;
28481;SDS011;15703;49.588;6.260;2023-04-28T20:29:51;3.78;;;3.25;;
28481;SDS011;15703;49.588;6.260;2023-04-28T20:36:00;1.80;;;1.70;;
28481;SDS011;15703;49.588;6.260;2023-04-28T20:38:24;6.15;;;3.03;;
28481;SDS011;15703;49.588;6.260;2023-04-28T20:41:27;5.25;;;2.95;;
28481;SDS011;15703;49.588;6.260;2023-04-28T20:43:49;4.90;;;3.30;;
28481;SDS011;15703;49.588;6.260;2023-04-28T20:46:48;20.20;;;12.68;;
28481;SDS011;15703;49.588;6.260;2023-04-28T20:49:39;20.10;;;10.65;;
28481;SDS011;15703;49.588;6.260;2023-04-28T20:52:03;4.50;;;2.58;;
28481;SDS011;15703;49.588;6.260;2023-04-28T20:54:50;10.35;;;5.65;;
28481;SDS011;15703;49.588;6.260;2023-04-28T21:01:21;1.20;;;1.10;;
28481;SDS011;15703;49.588;6.260;2023-04-28T21:03:45;7.03;;;3.65;;
28481;SDS011;15703;49.588;6.260;2023-04-28T21:07:06;33.95;;;17.75;;
28481;SDS011;15703;49.588;6.260;2023-04-28T21:09:31;3.50;;;1.73;;
28481;SDS011;15703;49.588;6.260;2023-04-28T21:11:56;1.00;;;0.83;;
28481;SDS011;15703;49.588;6.260;2023-04-28T21:17:04;1.10;;;1.00;;
28481;SDS011;15703;49.588;6.260;2023-04-28T21:24:13;2.97;;;1.00;;
28481;SDS011;15703;49.588;6.260;2023-04-28T21:27:14;1.10;;;1.00;;
28481;SDS011;15703;49.588;6.260;2023-04-28T21:29:37;2.20;;;0.90;;
28481;SDS011;15703;49.588;6.260;2023-04-28T21:33:12;2.00;;;0.97;;
28481;SDS011;15703;49.588;6.260;2023-04-28T21:37:01;1.88;;;1.35;;
28481;SDS011;15703;49.588;6.260;2023-04-28T21:39:38;1.17;;;1.10;;
28481;SDS011;15703;49.588;6.260;2023-04-28T21:42:39;1.20;;;1.10;;
28481;SDS011;15703;49.588;6.260;2023-04-28T21:45:22;1.20;;;1.10;;
28481;SDS011;15703;49.588;6.260;2023-04-28T21:48:35;1.10;;;1.00;;
28481;SDS011;15703;49.588;6.260;2023-04-28T21:51:01;0.90;;;0.90;;
28481;SDS011;15703;49.588;6.260;2023-04-28T21:53:24;1.20;;;1.10;;
28481;SDS011;15703;49.588;6.260;2023-04-28T21:55:47;1.77;;;1.20;;
28481;SDS011;15703;49.588;6.260;2023-04-28T21:58:12;1.40;;;1.00;;
28481;SDS011;15703;49.588;6.260;2023-04-28T22:01:07;1.80;;;1.37;;
28481;SDS011;15703;49.588;6.260;2023-04-28T22:03:31;3.30;;;1.43;;
28481;SDS011;15703;49.588;6.260;2023-04-28T22:05:56;2.40;;;1.03;;
28481;SDS011;15703;49.588;6.260;2023-04-28T22:08:47;1.73;;;1.30;;
28481;SDS011;15703;49.588;6.260;2023-04-28T22:11:09;1.27;;;1.17;;
28481;SDS011;15703;49.588;6.260;2023-04-28T22:13:39;1.43;;;1.03;;
28481;SDS011;15703;49.588;6.260;2023-04-28T22:16:02;1.10;;;1.10;;
28481;SDS011;15703;49.588;6.260;2023-04-28T22:18:46;1.10;;;1.10;;
28481;SDS011;15703;49.588;6.260;2023-04-28T22:21:09;0.80;;;0.80;;
28481;SDS011;15703;49.588;6.260;2023-04-28T22:23:41;1.23;;;1.20;;
28481;SDS011;15703;49.588;6.260;2023-04-28T22:26:04;1.07;;;0.97;;
28481;SDS011;15703;49.588;6.260;2023-04-28T22:28:26;1.47;;;1.13;;
28481;SDS011;15703;49.588;6.260;2023-04-28T22:30:49;1.60;;;1.00;;
28481;SDS011;15703;49.588;6.260;2023-04-28T22:33:11;1.13;;;1.03;;
28481;SDS011;15703;49.588;6.260;2023-04-28T22:35:34;1.00;;;1.00;;
28481;SDS011;15703;49.588;6.260;2023-04-28T22:37:56;1.13;;;1.13;;
28481;SDS011;15703;49.588;6.260;2023-04-28T22:40:19;1.40;;;1.30;;
28481;SDS011;15703;49.588;6.260;2023-04-28T22:42:41;1.17;;;1.17;;
28481;SDS011;15703;49.588;6.260;2023-04-28T22:45:07;1.37;;;1.20;;
28481;SDS011;15703;49.588;6.260;2023-04-28T22:47:30;1.33;;;1.23;;
28481;SDS011;15703;49.588;6.260;2023-04-28T22:49:53;1.30;;;1.20;;
28481;SDS011;15703;49.588;6.260;2023-04-28T22:52:15;1.60;;;1.50;;
28481;SDS011;15703;49.588;6.260;2023-04-28T22:54:40;1.40;;;1.30;;
28481;SDS011;15703;49.588;6.260;2023-04-28T22:57:02;1.40;;;1.20;;